Terminal Aerodrome Forecast
Issued by NWS

Home | Current Version | Previous Version | Text Only | Print | Product List | Glossary On
Versions: 1 2 3 4 5 6 7 8 9 10 11 12 13
000
FTUS45 KRIW 281720
TAFBPI
TAF
KBPI 281720Z 2818/2918 VRB06KT P6SM FEW110
     FM282000 27008KT P6SM SCT100 BKN150
     FM290700 VRB05KT P6SM FEW120 BKN200=

USA.gov is the U.S. government's official web portal to all federal, state and local government web resources and services.